Mount Erie, IL (62446)

11:30 AM CDT on June 02, 2015 (GMT -0500)
Fairfield Municipal | | Change Station
CLOSE
Current Station
Airport
Location: Fairfield,
Elevation: 436 ft
Nearby Weather Stations

Elev 436 ft 38.38 °N, 88.41 °W | Updated 15 minutes ago

Overcast
Overcast
60 °F
Feels Like 60 °F
N
7
Wind Variable Wind from NNE

Today
High -- | Low -- °F
--% Chance of Precip.
Yesterday
High -- | Low -- °F
Precip. -- in
5:31 AM 8:12 PM
Full, 100% visible
Pressure 30.13 in
Visibility 10.0 miles
Clouds Overcast 1200 ft
Dew Point 54 °F
Humidity 83%
Rainfall 0.00 in
Snow Depth Not available.
UV 3 out of 12
Pollen 7.20 out of 12
Air Quality Not available.
Flu Activity Sporadic
METAR KFWC 021615Z AUTO 03006KT 10SM OVC012 15/12 A3013 RMK AO1 T01530124

More Conditions Fewer Conditions

Pressure 30.13 in
Visibility 10.0 miles
Clouds Overcast 1200 ft
Dew Point 54 °F
Humidity 83%
Rainfall 0.00 in
Snow Depth Not available.
UV 3 out of 12
Pollen 7.20 out of 12
Air Quality Not available.
Flu Activity Sporadic
METAR KFWC 021615Z AUTO 03006KT 10SM OVC012 15/12 A3013 RMK AO1 T01530124

More Conditions Fewer Conditions

10-Day Weather Forecast

Almanac

Astronomy

Jun. 02, 2015 Rise Set
Actual Time
Civil Twilight
Nautical Twilight
Astronomical Twilight
Moon
Length of Visible Light
Length of Day
Tomorrow will be .
, % of the Moon is Illuminated

Today's Extremes

State Highs State Lows

Community

WunderPhotos

Upload Photos

1,825,976 photos uploaded!

WunderBlogs® & News

Nearby

Air Quality

  Air Quality AQ Index Pollutant
Not available.

Snow Depth

Station Depth Elevation

Earthquake Activity

City Distance Mag. Time & Date
Minimum magnitude displayed is 2.5.

Coastal Water Temperatures

Place Temperature

Stations

Nearby Weather Stations

Station Location Temp. Windchill Dew Point Humidity Wind Precip. Elev Updated Type